KSQL/SQL METAR and TAF weather

Enter ICAO airport designator
Station Type Date Time Source
KSQL METAR 2022/11/27 08:35 UTC NOAA

KSQL 270835Z AUTO 00000KT 8SM 08/04 A3014 RMK AO2


Station Type Date Time Source
KSQL Decoded METAR 2022/11/27 08:35 UTC NOAA

San Carlos Airport, CA, United States (KSQL) 37-31N 122-15W
Nov 27, 2022 - 03:35 AM EST / 2022.11.27 0835 UTC
Wind: Calm:0
Visibility: 8 mile(s):0
Temperature: 46 F (8 C)
Dew Point: 39 F (4 C)
Relative Humidity: 75%
Pressure (altimeter): 30.14 in. Hg (1020 hPa)
ob: KSQL 270835Z AUTO 00000KT 8SM 08/04 A3014 RMK AO2
cycle: 8

Station Type Date Time Source
KSQL TAF UTC NOAA

Error!

Example: see airport list